Time;durP1;ratioP1;P1;durP2;ratioP2;P2;SDS_P1;SDS_P2;PMS_P1;PMS_P2;Temp;Humidity;BMP_temperature;BMP_pressure;BME280_temperature;BME280_humidity;BME280_pressure;Samples;Min_cycle;Max_cycle;Signal;HPM_P1;HPM_P2
2022/10/08 00:01:06;;;;;;;12.00;2.97;;;;;;;;;;4971775;28;20397;-78
2022/10/08 00:03:33;;;;;;;13.20;3.67;;;;;;;;;;4954561;28;20082;-78
2022/10/08 00:06:04;;;;;;;8.38;3.15;;;;;;;;;;4971811;28;20528;-78
2022/10/08 00:08:32;;;;;;;11.05;2.83;;;;;;;;;;4971267;28;20047;-78
2022/10/08 00:11:00;;;;;;;9.48;3.00;;;;;;;;;;4971787;28;20489;-78
2022/10/08 00:13:27;;;;;;;9.25;3.38;;;;;;;;;;4970995;28;20079;-78
2022/10/08 00:15:53;;;;;;;11.73;2.78;;;;;;;;;;4955091;28;20066;-78
2022/10/08 00:18:19;;;;;;;12.25;3.10;;;;;;;;;;4972276;28;20054;-78
2022/10/08 00:20:46;;;;;;;9.80;3.00;;;;;;;;;;4971451;28;20062;-78
2022/10/08 00:23:12;;;;;;;9.82;3.15;;;;;;;;;;4973999;28;20076;-78
2022/10/08 00:25:42;;;;;;;9.27;3.20;;;;;;;;;;4974019;28;20615;-78
2022/10/08 00:28:09;;;;;;;6.10;2.70;;;;;;;;;;4973028;28;20054;-78
2022/10/08 00:30:39;;;;;;;11.90;2.92;;;;;;;;;;4972162;28;20096;-78
2022/10/08 00:33:05;;;;;;;11.13;3.65;;;;;;;;;;4971813;28;20195;-78
2022/10/08 00:35:36;;;;;;;11.50;3.10;;;;;;;;;;4972104;28;20467;-78
2022/10/08 00:38:02;;;;;;;8.82;2.92;;;;;;;;;;4971825;28;20129;-78
2022/10/08 00:40:28;;;;;;;9.32;3.15;;;;;;;;;;4971610;28;20046;-78
2022/10/08 00:42:54;;;;;;;10.07;2.95;;;;;;;;;;4971788;28;20100;-78
2022/10/08 00:45:20;;;;;;;8.00;3.85;;;;;;;;;;4971730;28;20047;-78
2022/10/08 00:47:48;;;;;;;10.05;3.15;;;;;;;;;;4972068;28;20116;-78
2022/10/08 00:50:16;;;;;;;8.63;3.00;;;;;;;;;;4972167;28;20057;-78
2022/10/08 00:52:45;;;;;;;13.38;3.10;;;;;;;;;;4971546;28;20043;-78
2022/10/08 00:55:12;;;;;;;11.45;3.17;;;;;;;;;;4971543;28;20421;-78
2022/10/08 00:57:39;;;;;;;16.02;3.50;;;;;;;;;;4971469;28;20039;-78
2022/10/08 01:00:32;;;;;;;11.60;3.40;;;;;;;;;;4971521;28;20046;-78
2022/10/08 01:02:58;;;;;;;11.57;3.60;;;;;;;;;;4967581;28;20124;-78
2022/10/08 01:05:30;;;;;;;12.07;3.92;;;;;;;;;;4971362;28;20047;-78
2022/10/08 01:08:01;;;;;;;11.85;3.92;;;;;;;;;;4970940;28;20047;-78
2022/10/08 01:10:34;;;;;;;10.45;3.40;;;;;;;;;;4971057;28;20121;-78
2022/10/08 01:13:00;;;;;;;9.18;3.33;;;;;;;;;;4971699;28;20074;-78
2022/10/08 01:15:33;;;;;;;9.70;3.15;;;;;;;;;;4970173;28;20532;-78
2022/10/08 01:18:21;;;;;;;8.13;2.85;;;;;;;;;;4971375;28;20050;-78
2022/10/08 01:20:51;;;;;;;9.98;3.15;;;;;;;;;;4974523;28;20515;-78
2022/10/08 01:23:31;;;;;;;10.77;3.50;;;;;;;;;;4973610;28;20065;-78
2022/10/08 01:26:05;;;;;;;10.15;3.03;;;;;;;;;;4974615;28;20042;-78
2022/10/08 01:28:40;;;;;;;13.43;4.05;;;;;;;;;;4974730;28;20043;-78
2022/10/08 01:31:08;;;;;;;10.68;3.13;;;;;;;;;;4974459;28;20494;-78
2022/10/08 01:33:41;;;;;;;10.18;2.88;;;;;;;;;;4975001;28;20078;-78
2022/10/08 01:36:09;;;;;;;9.45;3.13;;;;;;;;;;4972778;28;20047;-78
2022/10/08 01:38:39;;;;;;;10.60;3.00;;;;;;;;;;4973916;28;20395;-78
2022/10/08 01:41:07;;;;;;;7.78;2.95;;;;;;;;;;4974865;28;20100;-78
2022/10/08 01:43:35;;;;;;;10.80;2.92;;;;;;;;;;4974496;28;20043;-78
2022/10/08 01:46:05;;;;;;;9.35;3.42;;;;;;;;;;4974878;28;20082;-78
2022/10/08 01:48:34;;;;;;;10.10;3.10;;;;;;;;;;4974432;28;20050;-78
2022/10/08 01:51:00;;;;;;;11.50;3.33;;;;;;;;;;4974261;28;20050;-78
2022/10/08 01:53:32;;;;;;;10.88;3.20;;;;;;;;;;4974050;28;20051;-78
2022/10/08 01:56:00;;;;;;;11.15;3.75;;;;;;;;;;4974234;28;20517;-78
2022/10/08 01:58:33;;;;;;;6.70;2.72;;;;;;;;;;4973988;28;20077;-78
2022/10/08 02:01:05;;;;;;;10.32;3.17;;;;;;;;;;4974346;28;20137;-78
2022/10/08 02:03:31;;;;;;;11.50;3.65;;;;;;;;;;4973821;28;20541;-78
2022/10/08 02:05:58;;;;;;;11.20;3.10;;;;;;;;;;4973855;28;20501;-78
2022/10/08 02:08:24;;;;;;;11.30;2.85;;;;;;;;;;4973712;28;20046;-78
2022/10/08 02:10:51;;;;;;;9.40;3.17;;;;;;;;;;4973763;28;20043;-78
2022/10/08 02:13:17;;;;;;;11.35;3.20;;;;;;;;;;4973367;28;20055;-78
2022/10/08 02:16:02;;;;;;;10.20;2.97;;;;;;;;;;4973750;28;20406;-78
2022/10/08 02:18:39;;;;;;;15.55;3.83;;;;;;;;;;4973778;28;20043;-78
2022/10/08 02:21:12;;;;;;;11.80;3.05;;;;;;;;;;4973443;28;20421;-78
2022/10/08 02:23:54;;;;;;;10.23;3.03;;;;;;;;;;4974241;28;20055;-78
2022/10/08 02:26:23;;;;;;;8.60;2.85;;;;;;;;;;4973581;28;20051;-78
2022/10/08 02:28:54;;;;;;;9.30;2.50;;;;;;;;;;4973358;28;20049;-78
2022/10/08 02:31:20;;;;;;;11.05;2.83;;;;;;;;;;4972121;28;20061;-78
2022/10/08 02:34:09;;;;;;;13.90;3.33;;;;;;;;;;4973395;28;20047;-78
2022/10/08 02:36:37;;;;;;;11.30;3.35;;;;;;;;;;4967719;28;20120;-78
2022/10/08 02:39:04;;;;;;;9.50;3.60;;;;;;;;;;4973142;28;20053;-78
2022/10/08 02:41:34;;;;;;;11.60;2.67;;;;;;;;;;4973648;28;20092;-78
2022/10/08 02:44:04;;;;;;;13.43;3.80;;;;;;;;;;4973296;28;20122;-78
2022/10/08 02:46:33;;;;;;;12.23;3.15;;;;;;;;;;4972386;28;20051;-78
2022/10/08 02:49:02;;;;;;;12.60;3.55;;;;;;;;;;4973505;28;20039;-78
2022/10/08 02:51:29;;;;;;;11.13;3.10;;;;;;;;;;4973261;28;20054;-78
2022/10/08 02:53:56;;;;;;;10.52;3.22;;;;;;;;;;4973147;28;20485;-78
2022/10/08 02:56:26;;;;;;;13.73;2.92;;;;;;;;;;4973487;28;20088;-78
2022/10/08 02:58:52;;;;;;;8.32;2.83;;;;;;;;;;4973393;28;20043;-78
2022/10/08 03:01:29;;;;;;;13.50;3.25;;;;;;;;;;4973366;28;20558;-78
2022/10/08 03:04:02;;;;;;;12.95;3.15;;;;;;;;;;4973190;28;20177;-78
2022/10/08 03:06:28;;;;;;;7.72;2.72;;;;;;;;;;4973383;28;20053;-78
2022/10/08 03:08:57;;;;;;;11.23;3.40;;;;;;;;;;4973169;28;20047;-78
2022/10/08 03:11:24;;;;;;;12.95;2.58;;;;;;;;;;4973092;28;20486;-78
2022/10/08 03:13:51;;;;;;;10.52;3.17;;;;;;;;;;4972322;28;20043;-78
2022/10/08 03:16:19;;;;;;;10.95;3.13;;;;;;;;;;4972844;28;20057;-78
2022/10/08 03:18:46;;;;;;;9.70;3.13;;;;;;;;;;4972832;28;20051;-78
2022/10/08 03:21:12;;;;;;;11.60;3.22;;;;;;;;;;4972527;28;20486;-78
2022/10/08 03:23:38;;;;;;;8.52;2.92;;;;;;;;;;4972737;28;20101;-78
2022/10/08 03:26:04;;;;;;;9.38;3.03;;;;;;;;;;4972723;28;20510;-78
2022/10/08 03:28:30;;;;;;;12.43;2.90;;;;;;;;;;4972615;28;20054;-78
2022/10/08 03:30:56;;;;;;;9.52;3.13;;;;;;;;;;4972832;28;20054;-78
2022/10/08 03:33:23;;;;;;;14.38;3.28;;;;;;;;;;4971635;28;20054;-78
2022/10/08 03:35:49;;;;;;;12.57;3.28;;;;;;;;;;4972630;28;20093;-78
2022/10/08 03:38:15;;;;;;;11.60;3.22;;;;;;;;;;4972841;28;20050;-78
2022/10/08 03:40:42;;;;;;;10.43;2.70;;;;;;;;;;4972811;28;20047;-78
2022/10/08 03:43:08;;;;;;;12.18;3.20;;;;;;;;;;4972019;28;20039;-78
2022/10/08 03:45:34;;;;;;;9.98;3.13;;;;;;;;;;4972206;28;20497;-78
2022/10/08 03:48:00;;;;;;;12.10;2.95;;;;;;;;;;4972619;28;20047;-78
2022/10/08 03:50:26;;;;;;;8.50;2.85;;;;;;;;;;4972787;28;20123;-78
2022/10/08 03:52:52;;;;;;;10.30;3.05;;;;;;;;;;4972929;28;20039;-78
2022/10/08 03:55:18;;;;;;;13.15;3.20;;;;;;;;;;4974851;28;20452;-77
2022/10/08 03:57:44;;;;;;;12.07;2.80;;;;;;;;;;4977444;28;20057;-78
2022/10/08 04:00:10;;;;;;;11.10;3.05;;;;;;;;;;4976392;28;20458;-78
2022/10/08 04:02:37;;;;;;;11.18;3.20;;;;;;;;;;4975350;28;20051;-78
2022/10/08 04:05:03;;;;;;;11.65;3.50;;;;;;;;;;4972620;28;20130;-78
2022/10/08 04:07:29;;;;;;;10.70;2.80;;;;;;;;;;4972658;28;20081;-78
2022/10/08 04:09:55;;;;;;;11.65;3.30;;;;;;;;;;4972548;28;20074;-78
2022/10/08 04:12:21;;;;;;;12.95;3.20;;;;;;;;;;4970944;28;20501;-78
2022/10/08 04:14:47;;;;;;;9.38;2.85;;;;;;;;;;4972140;28;20089;-78
2022/10/08 04:17:13;;;;;;;7.47;2.92;;;;;;;;;;4972212;28;20086;-78
2022/10/08 04:19:39;;;;;;;10.18;3.38;;;;;;;;;;4971573;28;20090;-78
2022/10/08 04:22:05;;;;;;;11.57;2.67;;;;;;;;;;4970512;28;20051;-78
2022/10/08 04:24:31;;;;;;;13.90;3.05;;;;;;;;;;4970372;28;20054;-78
2022/10/08 04:26:57;;;;;;;12.32;4.10;;;;;;;;;;4970685;28;20145;-77
2022/10/08 04:29:23;;;;;;;14.43;3.30;;;;;;;;;;4971760;28;20043;-78
2022/10/08 04:31:49;;;;;;;13.82;3.90;;;;;;;;;;4971732;28;20458;-78
2022/10/08 04:34:15;;;;;;;12.27;3.33;;;;;;;;;;4971773;28;20478;-78
2022/10/08 04:36:41;;;;;;;18.30;3.55;;;;;;;;;;4971771;28;20043;-78
2022/10/08 04:39:07;;;;;;;12.48;2.97;;;;;;;;;;4971670;28;20485;-78
2022/10/08 04:41:33;;;;;;;14.10;3.08;;;;;;;;;;4972387;28;20050;-78
2022/10/08 04:44:00;;;;;;;12.60;2.78;;;;;;;;;;4971681;28;20039;-78
2022/10/08 04:46:26;;;;;;;15.77;3.72;;;;;;;;;;4971884;28;20050;-78
2022/10/08 04:48:53;;;;;;;9.80;2.63;;;;;;;;;;4970025;28;20047;-78
2022/10/08 04:51:22;;;;;;;15.40;2.95;;;;;;;;;;4971543;28;20047;-78
2022/10/08 04:53:48;;;;;;;10.63;3.50;;;;;;;;;;4971358;28;20108;-78
2022/10/08 04:56:15;;;;;;;9.50;2.80;;;;;;;;;;4974766;28;20058;-78
2022/10/08 04:58:42;;;;;;;12.13;3.25;;;;;;;;;;4973545;28;20535;-78
2022/10/08 05:01:09;;;;;;;11.23;3.42;;;;;;;;;;4975324;28;20081;-77
2022/10/08 05:03:39;;;;;;;9.52;3.17;;;;;;;;;;4974652;28;20122;-78
2022/10/08 05:06:06;;;;;;;12.52;2.65;;;;;;;;;;4975340;28;20125;-78
2022/10/08 05:08:32;;;;;;;9.05;3.10;;;;;;;;;;4975221;28;20054;-78
2022/10/08 05:10:58;;;;;;;12.23;3.88;;;;;;;;;;4974835;28;20047;-77
2022/10/08 05:13:24;;;;;;;11.38;2.83;;;;;;;;;;4974792;28;20042;-77
2022/10/08 05:15:50;;;;;;;18.35;3.95;;;;;;;;;;4975029;28;20046;-78
2022/10/08 05:18:16;;;;;;;11.48;3.17;;;;;;;;;;4974856;28;20050;-78
2022/10/08 05:20:42;;;;;;;9.98;2.83;;;;;;;;;;4974743;28;20127;-78
2022/10/08 05:23:08;;;;;;;9.55;2.70;;;;;;;;;;4974927;28;20105;-78
2022/10/08 05:25:35;;;;;;;9.38;3.30;;;;;;;;;;4973344;28;20115;-78
2022/10/08 05:28:01;;;;;;;13.27;2.83;;;;;;;;;;4973423;28;20049;-77
2022/10/08 05:30:27;;;;;;;12.23;3.75;;;;;;;;;;4974778;28;20047;-78
2022/10/08 05:32:53;;;;;;;10.50;2.97;;;;;;;;;;4974508;28;20050;-78
2022/10/08 05:35:20;;;;;;;9.23;2.78;;;;;;;;;;4974750;28;20043;-77
2022/10/08 05:37:46;;;;;;;13.80;3.05;;;;;;;;;;4974215;28;20092;-78
2022/10/08 05:40:12;;;;;;;13.88;2.83;;;;;;;;;;4974214;28;20070;-78
2022/10/08 05:42:38;;;;;;;8.43;2.50;;;;;;;;;;4974162;28;20338;-78
2022/10/08 05:45:04;;;;;;;10.98;2.90;;;;;;;;;;4974788;28;20050;-78
2022/10/08 05:47:30;;;;;;;12.82;2.95;;;;;;;;;;4973676;28;20057;-77
2022/10/08 05:49:56;;;;;;;10.90;2.90;;;;;;;;;;4974212;28;20050;-78
2022/10/08 05:52:22;;;;;;;9.52;2.67;;;;;;;;;;4974094;28;20046;-77
2022/10/08 05:54:48;;;;;;;7.40;2.92;;;;;;;;;;4974347;28;20093;-78
2022/10/08 05:57:14;;;;;;;9.07;2.75;;;;;;;;;;4973982;28;20436;-78
2022/10/08 05:59:40;;;;;;;11.63;3.10;;;;;;;;;;4974533;28;20054;-78
2022/10/08 06:02:06;;;;;;;7.97;2.50;;;;;;;;;;4991369;28;20045;-74
2022/10/08 06:04:32;;;;;;;7.25;2.50;;;;;;;;;;4998183;28;20027;-75
2022/10/08 06:06:58;;;;;;;8.52;2.10;;;;;;;;;;4997401;28;20090;-75
2022/10/08 06:09:24;;;;;;;5.47;1.88;;;;;;;;;;4988065;28;20047;-76
2022/10/08 06:11:51;;;;;;;5.80;1.70;;;;;;;;;;4974702;28;20050;-76
2022/10/08 06:14:19;;;;;;;5.75;1.90;;;;;;;;;;4974063;28;20059;-76
2022/10/08 06:16:45;;;;;;;3.15;1.80;;;;;;;;;;4974136;28;20047;-77
2022/10/08 06:19:11;;;;;;;3.92;2.20;;;;;;;;;;4973759;28;20067;-77
2022/10/08 06:21:37;;;;;;;7.90;2.30;;;;;;;;;;4974475;28;20138;-77
2022/10/08 06:24:05;;;;;;;7.70;1.77;;;;;;;;;;4973933;28;20058;-78
2022/10/08 06:26:32;;;;;;;5.13;1.67;;;;;;;;;;4973622;28;20043;-78
2022/10/08 06:28:59;;;;;;;7.00;2.05;;;;;;;;;;4974606;28;20112;-78
2022/10/08 06:31:25;;;;;;;7.13;2.13;;;;;;;;;;4973271;28;20104;-78
2022/10/08 06:33:55;;;;;;;5.60;2.22;;;;;;;;;;4973865;28;20050;-78
2022/10/08 06:36:25;;;;;;;7.03;2.47;;;;;;;;;;4972337;28;20093;-78
2022/10/08 06:38:58;;;;;;;8.20;2.40;;;;;;;;;;4973800;28;20046;-78
2022/10/08 06:41:25;;;;;;;6.13;2.22;;;;;;;;;;4972133;28;20104;-78
2022/10/08 06:43:51;;;;;;;9.02;2.40;;;;;;;;;;4973892;28;20043;-78
2022/10/08 06:46:17;;;;;;;4.97;2.00;;;;;;;;;;4973698;28;20050;-78
2022/10/08 06:48:43;;;;;;;6.05;2.50;;;;;;;;;;4973324;28;20125;-78
2022/10/08 06:51:11;;;;;;;8.88;2.25;;;;;;;;;;4973308;28;20065;-78
2022/10/08 06:53:38;;;;;;;7.40;1.98;;;;;;;;;;4973217;28;20046;-78
2022/10/08 06:56:05;;;;;;;3.03;1.70;;;;;;;;;;4973680;28;20046;-78
2022/10/08 06:58:33;;;;;;;4.47;1.77;;;;;;;;;;4972459;28;20054;-78
2022/10/08 07:01:01;;;;;;;6.93;2.03;;;;;;;;;;4974013;28;20043;-78
2022/10/08 07:03:27;;;;;;;7.10;2.13;;;;;;;;;;4973044;28;20066;-78
2022/10/08 07:05:53;;;;;;;6.07;2.08;;;;;;;;;;4973303;28;20053;-78
2022/10/08 07:08:19;;;;;;;9.52;1.90;;;;;;;;;;4973304;28;20086;-78
2022/10/08 07:10:46;;;;;;;5.72;2.10;;;;;;;;;;4972578;28;20149;-78
2022/10/08 07:13:12;;;;;;;8.10;2.20;;;;;;;;;;4971525;28;20051;-78
2022/10/08 07:15:38;;;;;;;7.38;1.95;;;;;;;;;;4973522;28;20046;-78
2022/10/08 07:18:04;;;;;;;5.22;1.77;;;;;;;;;;4972642;28;20039;-78
2022/10/08 07:20:30;;;;;;;7.15;1.88;;;;;;;;;;4973261;28;20452;-78
2022/10/08 07:22:56;;;;;;;5.53;2.10;;;;;;;;;;4974882;28;20081;-78
2022/10/08 07:25:22;;;;;;;5.20;2.03;;;;;;;;;;4975230;28;20406;-78
2022/10/08 07:27:48;;;;;;;5.45;1.90;;;;;;;;;;4973403;28;20559;-78
2022/10/08 07:30:14;;;;;;;11.50;2.75;;;;;;;;;;4973487;28;20138;-78
2022/10/08 07:32:40;;;;;;;8.70;2.03;;;;;;;;;;4972611;28;20051;-78
2022/10/08 07:35:07;;;;;;;5.72;2.03;;;;;;;;;;4972585;28;20096;-78
2022/10/08 07:37:33;;;;;;;6.30;2.10;;;;;;;;;;4973041;28;20039;-78
2022/10/08 07:39:59;;;;;;;9.55;2.15;;;;;;;;;;4973083;28;20053;-78
2022/10/08 07:42:25;;;;;;;5.22;1.80;;;;;;;;;;4972498;28;20046;-78
2022/10/08 07:44:51;;;;;;;12.70;3.35;;;;;;;;;;4972404;28;20043;-78
2022/10/08 07:47:17;;;;;;;10.18;2.63;;;;;;;;;;4988477;28;20090;-75
2022/10/08 07:49:43;;;;;;;8.30;1.92;;;;;;;;;;4996407;28;20027;-75
2022/10/08 07:52:09;;;;;;;4.70;1.90;;;;;;;;;;4987383;28;20043;-76
2022/10/08 07:54:35;;;;;;;6.75;1.90;;;;;;;;;;4973913;28;20081;-77
2022/10/08 07:57:01;;;;;;;4.95;2.10;;;;;;;;;;4972964;28;20047;-77
2022/10/08 07:59:28;;;;;;;7.60;1.95;;;;;;;;;;4972182;28;20038;-78
2022/10/08 08:01:54;;;;;;;9.40;2.30;;;;;;;;;;4972272;28;20043;-78
2022/10/08 08:04:20;;;;;;;9.10;2.53;;;;;;;;;;4972144;28;20508;-78
2022/10/08 08:06:47;;;;;;;8.88;2.50;;;;;;;;;;4972108;28;20053;-78
2022/10/08 08:09:13;;;;;;;7.72;2.28;;;;;;;;;;4972371;28;20046;-78
2022/10/08 08:11:39;;;;;;;7.47;2.63;;;;;;;;;;4971357;28;20415;-79
2022/10/08 08:14:06;;;;;;;8.02;2.55;;;;;;;;;;4971924;28;20051;-78
2022/10/08 08:16:32;;;;;;;7.82;2.20;;;;;;;;;;4972089;28;20078;-79
2022/10/08 08:18:59;;;;;;;12.63;2.63;;;;;;;;;;4971782;28;20042;-79
2022/10/08 08:21:26;;;;;;;8.23;2.30;;;;;;;;;;4972474;28;20050;-79
2022/10/08 08:23:54;;;;;;;12.30;3.03;;;;;;;;;;4972543;28;20047;-78
2022/10/08 08:26:31;;;;;;;10.60;2.00;;;;;;;;;;4972242;28;20486;-79
2022/10/08 08:29:01;;;;;;;5.85;1.88;;;;;;;;;;4971383;28;20047;-79
2022/10/08 08:31:29;;;;;;;7.00;2.22;;;;;;;;;;4971972;28;20086;-79
2022/10/08 08:33:56;;;;;;;7.45;2.67;;;;;;;;;;4971769;28;20054;-78
2022/10/08 08:36:27;;;;;;;6.43;2.05;;;;;;;;;;4971678;28;20050;-78
2022/10/08 08:38:54;;;;;;;8.00;2.30;;;;;;;;;;4971778;28;20054;-78
2022/10/08 08:41:23;;;;;;;9.77;2.78;;;;;;;;;;4971811;28;20046;-78
2022/10/08 08:43:56;;;;;;;9.00;2.50;;;;;;;;;;4971882;28;20039;-78
2022/10/08 08:46:22;;;;;;;7.57;2.28;;;;;;;;;;4971962;28;20058;-78
2022/10/08 08:48:51;;;;;;;10.60;2.67;;;;;;;;;;4970606;28;20435;-78
2022/10/08 08:51:17;;;;;;;7.72;2.20;;;;;;;;;;4971563;28;20066;-78
2022/10/08 08:53:43;;;;;;;6.32;2.80;;;;;;;;;;4972095;28;20527;-79
2022/10/08 08:56:12;;;;;;;9.13;2.55;;;;;;;;;;4971491;28;20126;-78
2022/10/08 08:58:57;;;;;;;8.77;2.55;;;;;;;;;;4971836;28;20047;-79
2022/10/08 09:01:32;;;;;;;7.80;2.30;;;;;;;;;;4971885;28;20121;-78
2022/10/08 09:04:03;;;;;;;7.70;2.88;;;;;;;;;;4971819;28;20478;-78
2022/10/08 09:06:29;;;;;;;9.10;2.25;;;;;;;;;;4971786;28;20086;-78
2022/10/08 09:08:55;;;;;;;7.47;2.33;;;;;;;;;;4970581;28;20097;-78
2022/10/08 09:11:23;;;;;;;8.35;2.65;;;;;;;;;;4971340;28;20047;-78
2022/10/08 09:13:51;;;;;;;6.85;2.20;;;;;;;;;;4971357;28;20093;-78
2022/10/08 09:16:20;;;;;;;8.18;2.38;;;;;;;;;;4970638;28;20051;-78
2022/10/08 09:18:50;;;;;;;9.05;2.38;;;;;;;;;;4971455;28;20057;-78
2022/10/08 09:21:17;;;;;;;7.60;2.53;;;;;;;;;;4971324;28;20398;-78
2022/10/08 09:23:43;;;;;;;6.80;2.05;;;;;;;;;;4971497;28;20104;-78
2022/10/08 09:26:13;;;;;;;10.27;2.60;;;;;;;;;;4971411;28;20043;-78
2022/10/08 09:28:46;;;;;;;7.20;2.30;;;;;;;;;;4970786;28;20055;-78
2022/10/08 09:31:12;;;;;;;7.63;2.10;;;;;;;;;;4971764;28;20049;-78
2022/10/08 09:33:39;;;;;;;8.15;2.50;;;;;;;;;;4971094;28;20043;-78
2022/10/08 09:36:05;;;;;;;8.02;2.30;;;;;;;;;;4971086;28;20054;-78
2022/10/08 09:38:36;;;;;;;9.98;2.28;;;;;;;;;;4971280;28;20046;-78
2022/10/08 09:41:04;;;;;;;7.15;1.90;;;;;;;;;;4973415;28;20101;-78
2022/10/08 09:43:32;;;;;;;8.65;2.28;;;;;;;;;;4974126;28;20035;-78
2022/10/08 09:45:58;;;;;;;7.50;1.80;;;;;;;;;;4974517;28;20386;-78
2022/10/08 09:48:28;;;;;;;12.52;3.13;;;;;;;;;;4974326;28;20046;-78
2022/10/08 09:50:57;;;;;;;11.07;2.67;;;;;;;;;;4973988;28;20071;-78
2022/10/08 09:53:24;;;;;;;9.98;2.42;;;;;;;;;;4973998;28;20409;-78
2022/10/08 09:56:01;;;;;;;11.90;2.33;;;;;;;;;;4973754;28;20687;-78
2022/10/08 09:58:29;;;;;;;8.65;2.03;;;;;;;;;;4974587;28;20053;-78
2022/10/08 10:01:01;;;;;;;6.80;2.85;;;;;;;;;;4974454;28;20050;-78
2022/10/08 10:03:27;;;;;;;11.35;2.40;;;;;;;;;;4956397;28;20046;-78
2022/10/08 10:05:55;;;;;;;7.60;2.33;;;;;;;;;;4973985;28;20039;-78
2022/10/08 10:08:40;;;;;;;8.75;3.45;;;;;;;;;;4974042;28;20133;-78
2022/10/08 10:11:06;;;;;;;9.02;2.60;;;;;;;;;;4973778;28;20054;-78
2022/10/08 10:13:35;;;;;;;5.75;2.45;;;;;;;;;;4973881;28;20043;-77
2022/10/08 10:16:04;;;;;;;8.38;2.83;;;;;;;;;;4973478;28;20047;-78
2022/10/08 10:18:39;;;;;;;10.55;2.60;;;;;;;;;;4974035;28;20057;-78
2022/10/08 10:21:06;;;;;;;8.13;2.25;;;;;;;;;;4974092;28;20134;-78
2022/10/08 10:23:38;;;;;;;7.50;2.30;;;;;;;;;;4973751;28;20054;-78
2022/10/08 10:26:20;;;;;;;5.68;1.92;;;;;;;;;;4973549;28;20085;-78
2022/10/08 10:28:46;;;;;;;10.55;2.17;;;;;;;;;;4973977;28;20046;-77
2022/10/08 10:31:22;;;;;;;8.60;2.17;;;;;;;;;;4973539;28;20051;-78
2022/10/08 10:33:51;;;;;;;9.55;2.30;;;;;;;;;;4973509;28;20100;-78
2022/10/08 10:36:17;;;;;;;11.00;2.80;;;;;;;;;;4973817;28;20078;-78
2022/10/08 10:38:55;;;;;;;6.68;2.25;;;;;;;;;;4973582;28;20051;-78
2022/10/08 10:41:32;;;;;;;8.52;2.10;;;;;;;;;;4973800;28;20533;-77
2022/10/08 10:44:06;;;;;;;8.27;2.35;;;;;;;;;;4973658;28;20116;-78
2022/10/08 10:46:38;;;;;;;13.77;2.83;;;;;;;;;;4973772;28;20043;-78
2022/10/08 10:49:15;;;;;;;10.75;2.30;;;;;;;;;;4973938;28;20039;-78
2022/10/08 10:51:57;;;;;;;8.05;2.85;;;;;;;;;;4974570;28;20176;-78
2022/10/08 10:54:23;;;;;;;9.93;2.53;;;;;;;;;;4975478;28;20051;-79
2022/10/08 10:56:53;;;;;;;8.25;2.30;;;;;;;;;;4973334;28;20116;-79
2022/10/08 10:59:22;;;;;;;7.13;1.75;;;;;;;;;;4972869;28;20452;-79
2022/10/08 11:01:48;;;;;;;3.72;1.35;;;;;;;;;;4973019;28;20051;-79
2022/10/08 11:04:23;;;;;;;7.22;1.60;;;;;;;;;;4973120;28;20047;-79
2022/10/08 11:06:49;;;;;;;5.97;1.90;;;;;;;;;;4973604;28;20073;-79
2022/10/08 11:09:40;;;;;;;6.57;1.95;;;;;;;;;;4972757;28;20047;-78
2022/10/08 11:12:20;;;;;;;7.35;1.70;;;;;;;;;;4971737;28;20122;-79
2022/10/08 11:14:55;;;;;;;6.07;1.92;;;;;;;;;;4972869;28;20057;-78
2022/10/08 11:17:21;;;;;;;5.00;1.80;;;;;;;;;;4973307;28;20055;-78
2022/10/08 11:19:56;;;;;;;6.82;2.28;;;;;;;;;;4972546;28;20062;-78
2022/10/08 11:22:47;;;;;;;6.70;2.03;;;;;;;;;;4973006;28;20130;-78
2022/10/08 11:25:23;;;;;;;9.40;2.80;;;;;;;;;;4972658;28;20525;-78
2022/10/08 11:27:52;;;;;;;10.55;2.78;;;;;;;;;;4972709;28;20039;-78
2022/10/08 11:30:30;;;;;;;8.82;2.78;;;;;;;;;;4972453;28;20498;-78
2022/10/08 11:32:57;;;;;;;7.43;2.20;;;;;;;;;;4972654;28;20438;-78
2022/10/08 11:35:27;;;;;;;7.70;2.40;;;;;;;;;;4973158;28;20039;-78
2022/10/08 11:38:04;;;;;;;9.93;2.28;;;;;;;;;;4973166;28;20046;-78
2022/10/08 11:40:30;;;;;;;8.48;2.60;;;;;;;;;;4971093;28;20051;-78
2022/10/08 11:42:56;;;;;;;8.00;2.45;;;;;;;;;;4972509;28;20058;-78
2022/10/08 11:45:22;;;;;;;9.45;2.67;;;;;;;;;;4972565;28;20039;-78
2022/10/08 11:47:49;;;;;;;9.85;2.10;;;;;;;;;;4972582;28;20061;-78
2022/10/08 11:50:24;;;;;;;10.10;2.40;;;;;;;;;;4972690;28;20082;-78
2022/10/08 11:52:51;;;;;;;9.73;2.35;;;;;;;;;;4972063;28;20062;-78
2022/10/08 11:55:23;;;;;;;9.27;2.70;;;;;;;;;;4972187;28;20150;-78
2022/10/08 11:57:57;;;;;;;10.15;2.80;;;;;;;;;;4972611;28;20051;-78
2022/10/08 12:00:38;;;;;;;11.52;3.13;;;;;;;;;;4972608;28;20047;-78
2022/10/08 12:03:20;;;;;;;10.93;3.35;;;;;;;;;;4970842;28;20410;-78
2022/10/08 12:05:49;;;;;;;5.80;2.22;;;;;;;;;;4972033;28;20096;-78
2022/10/08 12:08:34;;;;;;;6.07;2.38;;;;;;;;;;4973013;28;20042;-78
2022/10/08 12:11:20;;;;;;;9.38;2.42;;;;;;;;;;4971075;28;20122;-78
2022/10/08 12:14:06;;;;;;;9.75;2.92;;;;;;;;;;4971756;28;20043;-78
2022/10/08 12:16:47;;;;;;;5.65;1.95;;;;;;;;;;4971837;28;20051;-77
2022/10/08 12:19:35;;;;;;;7.10;1.83;;;;;;;;;;4971639;28;20540;-78
2022/10/08 12:22:24;;;;;;;5.80;1.85;;;;;;;;;;4972240;28;20058;-78
2022/10/08 12:24:54;;;;;;;7.72;2.08;;;;;;;;;;4971901;28;20103;-78
2022/10/08 12:27:21;;;;;;;4.93;1.90;;;;;;;;;;4972102;28;20130;-78
2022/10/08 12:30:02;;;;;;;10.20;2.70;;;;;;;;;;4972009;28;20050;-78
2022/10/08 12:32:28;;;;;;;9.15;1.85;;;;;;;;;;4972409;28;20401;-77
2022/10/08 12:34:55;;;;;;;8.75;2.13;;;;;;;;;;4971585;28;20504;-77
2022/10/08 12:37:27;;;;;;;7.00;1.63;;;;;;;;;;4972317;28;20251;-77
2022/10/08 12:39:54;;;;;;;6.18;1.85;;;;;;;;;;4971751;28;20043;-77
2022/10/08 12:42:22;;;;;;;3.50;1.60;;;;;;;;;;4971548;28;20042;-77
2022/10/08 12:44:51;;;;;;;6.13;1.90;;;;;;;;;;4971872;28;20540;-77
2022/10/08 12:47:22;;;;;;;4.65;2.10;;;;;;;;;;4971391;28;20051;-77
2022/10/08 12:49:48;;;;;;;6.05;2.10;;;;;;;;;;4971475;28;20046;-77
2022/10/08 12:52:15;;;;;;;6.13;1.83;;;;;;;;;;4971617;28;20046;-77
2022/10/08 12:54:55;;;;;;;7.00;2.25;;;;;;;;;;4971664;28;20039;-77
2022/10/08 12:57:28;;;;;;;6.88;2.00;;;;;;;;;;4971137;28;20133;-77
2022/10/08 12:59:55;;;;;;;6.50;2.35;;;;;;;;;;4971317;28;20054;-77
2022/10/08 13:02:24;;;;;;;7.18;2.28;;;;;;;;;;4972036;28;20440;-78
2022/10/08 13:04:50;;;;;;;8.25;2.35;;;;;;;;;;4971539;28;20500;-77
2022/10/08 13:07:30;;;;;;;6.15;2.17;;;;;;;;;;4970552;28;20055;-77
2022/10/08 13:09:57;;;;;;;8.85;2.95;;;;;;;;;;4971389;28;20047;-77
2022/10/08 13:12:23;;;;;;;6.68;2.20;;;;;;;;;;4971305;28;20051;-77
2022/10/08 13:15:08;;;;;;;9.52;2.10;;;;;;;;;;4972939;28;20054;-77
2022/10/08 13:17:35;;;;;;;5.95;1.63;;;;;;;;;;4975223;28;20132;-77
2022/10/08 13:20:05;;;;;;;4.82;2.05;;;;;;;;;;4974708;28;20059;-77
2022/10/08 13:22:31;;;;;;;4.28;1.80;;;;;;;;;;4975221;28;20130;-77
2022/10/08 13:24:57;;;;;;;7.72;2.42;;;;;;;;;;4974788;28;20126;-77
2022/10/08 13:27:25;;;;;;;4.10;1.70;;;;;;;;;;4974679;28;20078;-77
2022/10/08 13:29:52;;;;;;;7.32;2.15;;;;;;;;;;4973235;28;20046;-77
2022/10/08 13:32:19;;;;;;;4.57;1.83;;;;;;;;;;4973026;28;20512;-77
2022/10/08 13:34:50;;;;;;;3.63;1.77;;;;;;;;;;4973882;28;20387;-77
2022/10/08 13:37:16;;;;;;;4.75;1.75;;;;;;;;;;4974981;28;20051;-77
2022/10/08 13:39:51;;;;;;;6.15;1.83;;;;;;;;;;4973593;28;20053;-77
2022/10/08 13:42:18;;;;;;;3.33;1.80;;;;;;;;;;4974409;28;20058;-77
2022/10/08 13:44:45;;;;;;;6.32;1.75;;;;;;;;;;4974904;28;20062;-77
2022/10/08 13:47:15;;;;;;;9.00;2.33;;;;;;;;;;4973976;28;20043;-77
2022/10/08 13:49:41;;;;;;;9.57;2.10;;;;;;;;;;4975162;28;20043;-77
2022/10/08 13:52:14;;;;;;;5.60;1.95;;;;;;;;;;4957755;28;20096;-77
2022/10/08 13:54:43;;;;;;;7.57;1.92;;;;;;;;;;4975217;28;20416;-77
2022/10/08 13:57:09;;;;;;;9.88;2.70;;;;;;;;;;4975223;28;20047;-77
2022/10/08 13:59:36;;;;;;;9.05;2.55;;;;;;;;;;4974324;28;20051;-77
2022/10/08 14:02:02;;;;;;;4.00;1.63;;;;;;;;;;4974904;28;20042;-77
2022/10/08 14:04:28;;;;;;;4.57;1.73;;;;;;;;;;4974151;28;20051;-77
2022/10/08 14:06:55;;;;;;;6.07;1.90;;;;;;;;;;4974612;28;20092;-78
2022/10/08 14:09:23;;;;;;;8.00;2.47;;;;;;;;;;4973682;28;20047;-77
2022/10/08 14:11:54;;;;;;;5.60;1.95;;;;;;;;;;4974515;28;20042;-77
2022/10/08 14:14:21;;;;;;;7.70;2.05;;;;;;;;;;4974215;28;20051;-77
2022/10/08 14:16:47;;;;;;;7.35;2.17;;;;;;;;;;4974420;28;20130;-77
2022/10/08 14:19:13;;;;;;;7.18;2.15;;;;;;;;;;4973697;28;20054;-77
2022/10/08 14:21:39;;;;;;;6.75;2.13;;;;;;;;;;4974788;28;20051;-77
2022/10/08 14:24:06;;;;;;;6.78;1.75;;;;;;;;;;4976962;28;20042;-77
2022/10/08 14:26:32;;;;;;;6.63;2.63;;;;;;;;;;4977653;28;20043;-77
2022/10/08 14:28:59;;;;;;;6.72;2.30;;;;;;;;;;4976735;28;20042;-77
2022/10/08 14:31:26;;;;;;;6.18;1.70;;;;;;;;;;4974207;28;20053;-77
2022/10/08 14:33:52;;;;;;;5.90;2.38;;;;;;;;;;4973946;28;20050;-77
2022/10/08 14:36:20;;;;;;;9.25;2.05;;;;;;;;;;4973815;28;20058;-77
2022/10/08 14:38:47;;;;;;;7.15;1.80;;;;;;;;;;4971936;28;20078;-77
2022/10/08 14:41:15;;;;;;;6.47;1.92;;;;;;;;;;4973091;28;20054;-77
2022/10/08 14:43:42;;;;;;;5.50;1.95;;;;;;;;;;4972444;28;20072;-77
2022/10/08 14:46:08;;;;;;;7.38;2.55;;;;;;;;;;4972199;28;20461;-77
2022/10/08 14:48:34;;;;;;;7.57;2.15;;;;;;;;;;4973067;28;20077;-77